createdAt,value
2023-05-21T00:00:33.505Z,1.00
2023-05-21T00:03:16.613Z,1.20
2023-05-21T00:05:29.420Z,1.00
2023-05-21T00:07:48.693Z,1.20
2023-05-21T00:09:57.889Z,1.00
2023-05-21T00:12:08.566Z,0.90
2023-05-21T00:14:17.683Z,1.60
2023-05-21T00:16:30.077Z,0.80
2023-05-21T00:18:39.861Z,1.10
2023-05-21T00:20:59.603Z,1.00
2023-05-21T00:23:19.787Z,1.00
2023-05-21T00:25:29.341Z,0.80
2023-05-21T00:27:39.474Z,0.70
2023-05-21T00:29:48.951Z,1.00
2023-05-21T00:31:58.412Z,1.30
2023-05-21T00:34:07.764Z,0.90
2023-05-21T00:36:16.937Z,1.00
2023-05-21T00:38:33.253Z,1.00
2023-05-21T00:40:42.641Z,0.90
2023-05-21T00:42:52.957Z,0.90
2023-05-21T00:45:05.286Z,0.90
2023-05-21T00:47:18.719Z,0.80
2023-05-21T00:49:28.061Z,0.70
2023-05-21T00:51:40.794Z,1.00
2023-05-21T00:53:51.822Z,0.90
2023-05-21T00:56:04.547Z,0.80
2023-05-21T00:58:13.792Z,0.80
2023-05-21T01:00:24.934Z,0.80
2023-05-21T01:02:35.050Z,0.90
2023-05-21T01:04:44.875Z,1.10
2023-05-21T01:06:56.528Z,0.80
2023-05-21T01:09:07.607Z,0.90
2023-05-21T01:11:18.133Z,0.60
2023-05-21T01:13:29.312Z,0.60
2023-05-21T01:15:41.945Z,0.60
2023-05-21T01:17:51.929Z,0.80
2023-05-21T01:20:02.942Z,0.70
2023-05-21T01:22:14.681Z,0.60
2023-05-21T01:24:24.349Z,0.80
2023-05-21T01:26:39.249Z,0.80
2023-05-21T01:28:48.518Z,0.90
2023-05-21T01:31:02.835Z,0.50
2023-05-21T01:33:19.117Z,0.60
2023-05-21T01:35:32.252Z,0.70
2023-05-21T01:37:47.002Z,0.60
2023-05-21T01:40:07.393Z,0.60
2023-05-21T01:42:18.614Z,0.70
2023-05-21T01:44:29.284Z,0.50
2023-05-21T01:46:39.564Z,0.70
2023-05-21T01:48:51.753Z,0.50
2023-05-21T01:51:05.234Z,0.50
2023-05-21T01:53:14.614Z,0.50
2023-05-21T01:55:25.762Z,0.50
2023-05-21T01:57:35.089Z,0.70
2023-05-21T01:59:44.633Z,0.50
2023-05-21T02:01:53.909Z,0.40
2023-05-21T02:04:03.589Z,0.50
2023-05-21T02:06:14.454Z,0.50
2023-05-21T02:08:23.768Z,0.50
2023-05-21T02:10:34.342Z,0.50
2023-05-21T02:12:44.610Z,0.40
2023-05-21T02:14:56.732Z,0.50
2023-05-21T02:17:06.434Z,0.50
2023-05-21T02:19:15.597Z,0.40
2023-05-21T02:21:25.094Z,0.50
2023-05-21T02:23:34.526Z,0.30
2023-05-21T02:25:47.460Z,0.30
2023-05-21T02:27:57.129Z,0.40
2023-05-21T02:30:07.443Z,0.50
2023-05-21T02:32:17.294Z,0.40
2023-05-21T02:34:26.638Z,0.40
2023-05-21T02:36:36.462Z,0.30
2023-05-21T02:38:46.349Z,0.30
2023-05-21T02:40:56.881Z,0.50
2023-05-21T02:43:06.503Z,0.40
2023-05-21T02:45:16.814Z,0.30
2023-05-21T02:47:26.525Z,0.40
2023-05-21T02:49:35.871Z,0.50
2023-05-21T02:51:45.392Z,0.40
2023-05-21T02:53:55.167Z,0.30
2023-05-21T02:56:04.867Z,0.30
2023-05-21T02:58:15.311Z,0.40
2023-05-21T03:00:25.158Z,0.50
2023-05-21T03:02:34.963Z,0.60
2023-05-21T03:04:46.467Z,0.30
2023-05-21T03:09:06.310Z,0.30
2023-05-21T03:13:24.257Z,0.30
2023-05-21T03:15:35.373Z,0.30
2023-05-21T03:17:44.886Z,0.30
2023-05-21T03:19:55.003Z,0.30
2023-05-21T03:22:05.150Z,0.40
2023-05-21T03:24:16.944Z,0.40
2023-05-21T03:26:29.862Z,0.60
2023-05-21T03:28:42.394Z,0.50
2023-05-21T03:30:52.434Z,0.50
2023-05-21T03:33:17.027Z,0.40
2023-05-21T03:35:27.740Z,0.40
2023-05-21T03:37:37.701Z,0.40
2023-05-21T03:39:47.174Z,0.70
2023-05-21T03:41:57.504Z,0.40
2023-05-21T03:44:42.109Z,0.30
2023-05-21T03:47:14.213Z,0.50
2023-05-21T03:49:27.132Z,0.50
2023-05-21T03:51:39.961Z,0.70
2023-05-21T03:53:49.591Z,0.40
2023-05-21T03:55:59.113Z,0.60
2023-05-21T03:58:09.916Z,0.50
2023-05-21T04:00:19.962Z,0.80
2023-05-21T04:02:29.589Z,0.90
2023-05-21T04:04:39.979Z,0.50
2023-05-21T04:06:50.003Z,0.50
2023-05-21T04:08:59.320Z,0.50
2023-05-21T04:11:12.357Z,0.60
2023-05-21T04:13:33.387Z,0.40
2023-05-21T04:15:44.015Z,0.50
2023-05-21T04:17:53.767Z,0.50
2023-05-21T04:20:03.076Z,0.50
2023-05-21T04:22:13.918Z,0.60
2023-05-21T04:24:31.951Z,0.50
2023-05-21T04:26:49.480Z,0.40
2023-05-21T04:28:59.762Z,0.50
2023-05-21T04:31:09.657Z,0.50
2023-05-21T04:33:21.609Z,0.70
2023-05-21T04:35:44.838Z,0.50
2023-05-21T04:37:55.300Z,0.40
2023-05-21T04:40:05.846Z,0.50
2023-05-21T04:42:15.191Z,0.50
2023-05-21T04:44:25.127Z,0.80
2023-05-21T04:46:35.529Z,0.70
2023-05-21T04:48:45.481Z,0.60
2023-05-21T04:50:54.966Z,0.50
2023-05-21T04:53:04.917Z,0.40
2023-05-21T04:55:24.707Z,0.50
2023-05-21T04:57:33.930Z,0.60
2023-05-21T04:59:44.051Z,0.60
2023-05-21T05:01:53.707Z,0.60
2023-05-21T05:04:04.726Z,0.50
2023-05-21T05:06:17.670Z,0.50
2023-05-21T05:08:27.478Z,0.40
2023-05-21T05:10:37.082Z,0.50
2023-05-21T05:12:55.447Z,0.60
2023-05-21T05:15:04.981Z,0.60
2023-05-21T05:17:16.028Z,0.60
2023-05-21T05:19:25.899Z,0.50
2023-05-21T05:21:35.491Z,0.60
2023-05-21T05:23:45.054Z,0.60
2023-05-21T05:25:54.629Z,0.50
2023-05-21T05:28:04.307Z,0.40
2023-05-21T05:30:17.295Z,0.60
2023-05-21T05:32:27.757Z,0.50
2023-05-21T05:34:38.120Z,0.60
2023-05-21T05:36:47.753Z,0.50
2023-05-21T05:38:57.271Z,0.60
2023-05-21T05:41:06.915Z,0.70
2023-05-21T05:43:17.080Z,0.50
2023-05-21T05:45:31.497Z,0.50
2023-05-21T05:47:41.130Z,0.40
2023-05-21T05:49:50.605Z,0.50
2023-05-21T05:51:59.927Z,0.40
2023-05-21T05:54:09.543Z,0.50
2023-05-21T05:56:18.863Z,0.60
2023-05-21T05:58:28.201Z,0.40
2023-05-21T06:00:40.876Z,0.60
2023-05-21T06:02:50.166Z,0.50
2023-05-21T06:04:59.891Z,0.50
2023-05-21T06:07:09.824Z,0.90
2023-05-21T06:09:19.502Z,0.60
2023-05-21T06:11:49.593Z,0.70
2023-05-21T06:14:01.198Z,1.20
2023-05-21T06:16:16.310Z,0.50
2023-05-21T06:18:25.527Z,0.70
2023-05-21T06:20:35.408Z,0.60
2023-05-21T06:22:54.973Z,0.60
2023-05-21T06:25:04.636Z,0.80
2023-05-21T06:27:14.233Z,0.60
2023-05-21T06:29:24.093Z,0.70
2023-05-21T06:31:34.436Z,0.60
2023-05-21T06:33:44.085Z,0.80
2023-05-21T06:35:53.425Z,0.70
2023-05-21T06:38:02.803Z,0.60
2023-05-21T06:40:16.079Z,0.50
2023-05-21T06:42:26.167Z,0.50
2023-05-21T06:44:51.765Z,0.50
2023-05-21T06:47:13.004Z,0.70
2023-05-21T06:49:22.286Z,0.80
2023-05-21T06:51:32.091Z,0.60
2023-05-21T06:53:41.685Z,0.70
2023-05-21T06:55:54.074Z,0.60
2023-05-21T06:58:11.340Z,0.60
2023-05-21T07:00:21.403Z,0.50
2023-05-21T07:02:30.852Z,0.80
2023-05-21T07:04:50.474Z,0.60
2023-05-21T07:07:04.902Z,0.70
2023-05-21T07:09:14.619Z,0.60
2023-05-21T07:11:29.025Z,0.60
2023-05-21T07:13:39.104Z,0.60
2023-05-21T07:15:48.479Z,0.80
2023-05-21T07:17:58.156Z,0.70
2023-05-21T07:20:13.647Z,0.70
2023-05-21T07:22:25.519Z,0.60
2023-05-21T07:24:39.148Z,1.00
2023-05-21T07:26:58.799Z,0.70
2023-05-21T07:29:09.385Z,0.70
2023-05-21T07:31:20.315Z,1.00
2023-05-21T07:33:31.216Z,0.90
2023-05-21T07:35:41.301Z,0.80
2023-05-21T07:37:51.027Z,1.20
2023-05-21T07:40:01.999Z,0.80
2023-05-21T07:42:12.539Z,1.00
2023-05-21T07:44:23.226Z,0.80
2023-05-21T07:46:33.039Z,0.90
2023-05-21T07:48:44.016Z,0.90
2023-05-21T07:50:53.990Z,1.10
2023-05-21T07:53:10.649Z,1.00
2023-05-21T07:55:20.743Z,1.00
2023-05-21T07:57:30.333Z,1.00
2023-05-21T07:59:43.106Z,0.90
2023-05-21T08:01:53.191Z,1.00
2023-05-21T08:04:07.145Z,1.00
2023-05-21T08:06:17.970Z,1.20
2023-05-21T08:08:27.778Z,1.10
2023-05-21T08:10:38.244Z,1.00
2023-05-21T08:12:48.801Z,1.00
2023-05-21T08:14:58.940Z,1.20
2023-05-21T08:17:11.035Z,1.10
2023-05-21T08:19:43.015Z,1.00
2023-05-21T08:21:55.582Z,1.10
2023-05-21T08:24:05.433Z,1.40
2023-05-21T08:26:17.639Z,1.10
2023-05-21T08:28:27.912Z,1.10
2023-05-21T08:30:37.329Z,1.30
2023-05-21T08:32:46.927Z,1.20
2023-05-21T08:34:57.919Z,1.20
2023-05-21T08:37:46.007Z,1.40
2023-05-21T08:40:14.303Z,1.60
2023-05-21T08:42:37.589Z,1.20
2023-05-21T08:44:54.094Z,1.00
2023-05-21T08:47:07.535Z,1.20
2023-05-21T08:49:27.064Z,1.60
2023-05-21T08:51:38.988Z,1.70
2023-05-21T08:53:50.012Z,1.30
2023-05-21T08:56:00.242Z,1.40
2023-05-21T08:58:21.072Z,1.70
2023-05-21T09:00:31.476Z,1.40
2023-05-21T09:02:44.260Z,1.20
2023-05-21T09:04:57.415Z,1.50
2023-05-21T09:07:07.310Z,1.40
2023-05-21T09:09:41.768Z,1.00
2023-05-21T09:11:51.705Z,1.40
2023-05-21T09:14:02.089Z,1.70
2023-05-21T09:16:31.240Z,1.20
2023-05-21T09:18:41.361Z,1.40
2023-05-21T09:21:27.652Z,1.60
2023-05-21T09:24:00.715Z,1.40
2023-05-21T09:26:14.600Z,1.40
2023-05-21T09:28:23.992Z,1.30
2023-05-21T09:30:36.111Z,1.60
2023-05-21T09:32:46.208Z,1.40
2023-05-21T09:34:55.718Z,1.50
2023-05-21T09:37:08.518Z,1.40
2023-05-21T09:39:33.701Z,1.40
2023-05-21T09:41:49.189Z,1.60
2023-05-21T09:44:03.033Z,1.70
2023-05-21T09:46:13.325Z,1.10
2023-05-21T09:48:43.206Z,2.00
2023-05-21T09:51:08.735Z,1.60
2023-05-21T09:53:17.914Z,1.70
2023-05-21T09:55:28.506Z,1.30
2023-05-21T09:57:44.932Z,1.40
2023-05-21T09:59:54.994Z,1.50
2023-05-21T10:02:27.327Z,1.60
2023-05-21T10:06:49.292Z,1.40
2023-05-21T10:09:02.539Z,1.80
2023-05-21T10:11:16.567Z,1.50
2023-05-21T10:13:26.504Z,1.60
2023-05-21T10:15:40.249Z,1.50
2023-05-21T10:17:59.715Z,1.80
2023-05-21T10:20:12.374Z,1.50
2023-05-21T10:22:21.832Z,1.30
2023-05-21T10:24:31.394Z,1.40
2023-05-21T10:26:42.910Z,1.40
2023-05-21T10:28:53.661Z,1.20
2023-05-21T10:31:03.489Z,1.20
2023-05-21T10:33:14.194Z,1.10
2023-05-21T10:35:24.831Z,1.10
2023-05-21T10:37:34.136Z,1.20
2023-05-21T10:39:46.227Z,1.00
2023-05-21T10:44:19.161Z,0.80
2023-05-21T10:46:59.331Z,1.00
2023-05-21T10:49:31.954Z,1.10
2023-05-21T10:51:51.547Z,1.10
2023-05-21T10:54:22.622Z,1.00
2023-05-21T10:56:38.668Z,0.90
2023-05-21T10:59:22.475Z,1.00
2023-05-21T11:01:35.046Z,1.60
2023-05-21T11:03:44.915Z,0.90
2023-05-21T11:05:58.788Z,1.10
2023-05-21T11:08:20.199Z,0.90
2023-05-21T11:10:41.110Z,0.80
2023-05-21T11:13:15.366Z,0.90
2023-05-21T11:15:25.410Z,1.00
2023-05-21T11:17:45.031Z,0.70
2023-05-21T11:19:56.411Z,1.50
2023-05-21T11:22:07.564Z,1.00
2023-05-21T11:24:22.552Z,0.80
2023-05-21T11:26:53.078Z,0.90
2023-05-21T11:29:13.426Z,0.90
2023-05-21T11:31:34.604Z,0.90
2023-05-21T11:33:44.132Z,1.20
2023-05-21T11:36:03.760Z,0.90
2023-05-21T11:38:13.860Z,0.80
2023-05-21T11:40:27.607Z,0.80
2023-05-21T11:42:42.498Z,0.90
2023-05-21T11:44:52.436Z,1.00
2023-05-21T11:47:01.755Z,1.10
2023-05-21T11:49:11.005Z,1.20
2023-05-21T11:51:21.612Z,1.00
2023-05-21T11:53:33.419Z,1.20
2023-05-21T11:55:47.663Z,1.10
2023-05-21T11:57:58.639Z,1.00
2023-05-21T12:00:15.016Z,1.30
2023-05-21T12:02:26.876Z,1.20
2023-05-21T12:04:37.855Z,0.90
2023-05-21T12:06:48.593Z,1.00
2023-05-21T12:08:58.649Z,0.90
2023-05-21T12:11:08.688Z,1.00
2023-05-21T12:13:18.380Z,0.90
2023-05-21T12:15:28.479Z,1.20
2023-05-21T12:17:38.037Z,0.80
2023-05-21T12:19:48.536Z,0.80
2023-05-21T12:21:57.914Z,0.90
2023-05-21T12:24:07.487Z,0.80
2023-05-21T12:26:17.769Z,0.90
2023-05-21T12:28:27.130Z,0.80
2023-05-21T12:30:39.962Z,1.10
2023-05-21T12:32:50.767Z,1.00
2023-05-21T12:35:00.268Z,0.80
2023-05-21T12:37:10.788Z,0.80
2023-05-21T12:39:21.466Z,0.70
2023-05-21T12:41:31.420Z,0.80
2023-05-21T12:43:41.652Z,0.80
2023-05-21T12:45:51.551Z,0.70
2023-05-21T12:48:02.862Z,0.80
2023-05-21T12:50:14.561Z,0.60
2023-05-21T12:52:24.191Z,0.90
2023-05-21T12:54:37.642Z,0.90
2023-05-21T12:56:50.257Z,0.80
2023-05-21T12:59:02.755Z,0.80
2023-05-21T13:01:27.333Z,0.50
2023-05-21T13:03:37.584Z,0.80
2023-05-21T13:05:47.236Z,0.70
2023-05-21T13:07:56.716Z,0.40
2023-05-21T13:10:06.947Z,0.60
2023-05-21T13:12:16.966Z,0.60
2023-05-21T13:14:26.449Z,0.50
2023-05-21T13:16:36.494Z,0.50
2023-05-21T13:19:06.252Z,0.50
2023-05-21T13:21:19.184Z,0.60
2023-05-21T13:23:28.337Z,0.60
2023-05-21T13:25:37.554Z,0.40
2023-05-21T13:27:47.586Z,0.40
2023-05-21T13:29:56.819Z,0.50
2023-05-21T13:32:10.601Z,0.40
2023-05-21T13:34:20.092Z,0.40
2023-05-21T13:36:29.542Z,0.40
2023-05-21T13:38:38.844Z,0.40
2023-05-21T13:40:48.483Z,0.30
2023-05-21T13:42:57.866Z,0.40
2023-05-21T13:45:07.982Z,0.30
2023-05-21T13:47:18.048Z,0.40
2023-05-21T13:49:27.352Z,0.30
2023-05-21T13:51:39.343Z,0.40
2023-05-21T13:53:49.093Z,0.30
2023-05-21T13:55:58.468Z,0.40
2023-05-21T13:58:07.760Z,0.40
2023-05-21T14:00:18.399Z,0.30
2023-05-21T14:02:28.791Z,0.40
2023-05-21T14:04:39.380Z,0.50
2023-05-21T14:06:49.190Z,0.40
2023-05-21T14:09:18.604Z,0.40
2023-05-21T14:11:28.481Z,0.50
2023-05-21T14:13:37.960Z,0.40
2023-05-21T14:15:50.928Z,0.40
2023-05-21T14:18:00.441Z,0.30
2023-05-21T14:20:15.298Z,0.40
2023-05-21T14:22:34.536Z,0.60
2023-05-21T14:24:43.739Z,0.30
2023-05-21T14:26:53.069Z,0.40
2023-05-21T14:29:02.504Z,0.50
2023-05-21T14:31:15.174Z,0.30
2023-05-21T14:33:28.049Z,0.40
2023-05-21T14:35:37.450Z,0.30
2023-05-21T14:37:47.016Z,0.40
2023-05-21T14:39:56.204Z,0.40
2023-05-21T14:42:07.027Z,0.30
2023-05-21T14:44:16.395Z,0.50
2023-05-21T14:46:26.197Z,0.40
2023-05-21T14:48:36.114Z,0.50
2023-05-21T14:50:46.181Z,0.40
2023-05-21T14:52:55.924Z,0.30
2023-05-21T14:55:05.462Z,0.40
2023-05-21T14:57:14.782Z,0.40
2023-05-21T14:59:24.041Z,0.40
2023-05-21T15:01:33.506Z,0.40
2023-05-21T15:03:43.602Z,0.50
2023-05-21T15:05:53.778Z,0.40
2023-05-21T15:08:04.447Z,0.40
2023-05-21T15:10:15.885Z,0.40
2023-05-21T15:12:27.645Z,0.50
2023-05-21T15:14:37.048Z,0.40
2023-05-21T15:16:46.574Z,0.40
2023-05-21T15:18:56.323Z,0.40
2023-05-21T15:21:06.573Z,0.30
2023-05-21T15:23:17.737Z,0.30
2023-05-21T15:25:27.408Z,0.70
2023-05-21T15:27:37.524Z,0.40
2023-05-21T15:29:47.134Z,0.30
2023-05-21T15:31:56.994Z,0.20
2023-05-21T15:34:06.574Z,0.40
2023-05-21T15:36:16.706Z,0.40
2023-05-21T15:38:26.080Z,0.70
2023-05-21T15:40:35.720Z,0.30
2023-05-21T15:42:45.077Z,0.40
2023-05-21T15:44:54.268Z,0.50
2023-05-21T15:47:03.662Z,0.30
2023-05-21T15:49:13.617Z,0.40
2023-05-21T15:51:23.131Z,0.40
2023-05-21T15:53:32.304Z,0.40
2023-05-21T15:55:41.424Z,0.50
2023-05-21T15:57:50.751Z,0.60
2023-05-21T16:00:00.125Z,0.50
2023-05-21T16:02:09.607Z,0.30
2023-05-21T16:04:20.488Z,0.30
2023-05-21T16:06:30.026Z,0.30
2023-05-21T16:08:49.292Z,0.40
2023-05-21T16:10:58.822Z,0.40
2023-05-21T16:13:08.073Z,0.30
2023-05-21T16:15:17.574Z,0.40
2023-05-21T16:17:27.031Z,0.40
2023-05-21T16:19:36.619Z,0.40
2023-05-21T16:21:45.953Z,0.50
2023-05-21T16:23:55.321Z,0.40
2023-05-21T16:26:15.256Z,0.40
2023-05-21T16:28:24.717Z,0.60
2023-05-21T16:30:34.129Z,0.40
2023-05-21T16:32:53.573Z,0.30
2023-05-21T16:35:03.243Z,0.30
2023-05-21T16:37:12.892Z,0.50
2023-05-21T16:39:22.382Z,0.40
2023-05-21T16:41:35.351Z,0.40
2023-05-21T16:43:44.906Z,0.40
2023-05-21T16:45:57.152Z,0.50
2023-05-21T16:48:06.850Z,0.30
2023-05-21T16:50:16.343Z,0.40
2023-05-21T16:52:26.642Z,0.40
2023-05-21T16:54:38.961Z,0.50
2023-05-21T16:56:48.565Z,0.40
2023-05-21T16:58:57.931Z,0.40
2023-05-21T17:01:10.733Z,0.40
2023-05-21T17:03:22.127Z,0.60
2023-05-21T17:05:41.723Z,0.60
2023-05-21T17:07:51.577Z,0.50
2023-05-21T17:10:00.951Z,0.50
2023-05-21T17:12:10.962Z,0.60
2023-05-21T17:14:32.981Z,0.50
2023-05-21T17:16:46.994Z,0.50
2023-05-21T17:18:56.704Z,0.80
2023-05-21T17:21:06.175Z,0.90
2023-05-21T17:23:15.930Z,0.70
2023-05-21T17:25:26.023Z,0.60
2023-05-21T17:27:35.208Z,0.50
2023-05-21T17:29:44.707Z,0.70
2023-05-21T17:31:54.500Z,0.70
2023-05-21T17:34:04.273Z,0.70
2023-05-21T17:36:14.655Z,0.50
2023-05-21T17:38:27.345Z,0.50
2023-05-21T17:40:36.848Z,0.40
2023-05-21T17:42:46.585Z,0.50
2023-05-21T17:44:56.063Z,0.50
2023-05-21T17:47:05.673Z,0.50
2023-05-21T17:49:15.338Z,0.50
2023-05-21T17:51:24.522Z,0.80
2023-05-21T17:53:33.847Z,0.60
2023-05-21T17:55:46.317Z,0.50
2023-05-21T17:57:55.573Z,0.60
2023-05-21T18:00:05.392Z,0.60
2023-05-21T18:02:20.924Z,0.60
2023-05-21T18:04:30.501Z,0.70
2023-05-21T18:06:49.264Z,0.40
2023-05-21T18:08:58.781Z,0.90
2023-05-21T18:11:08.760Z,0.50
2023-05-21T18:13:18.797Z,0.40
2023-05-21T18:15:28.163Z,0.60
2023-05-21T18:17:39.554Z,0.50
2023-05-21T18:19:48.947Z,0.60
2023-05-21T18:21:59.038Z,0.70
2023-05-21T18:24:12.259Z,0.60
2023-05-21T18:26:22.503Z,0.70
2023-05-21T18:28:33.597Z,0.80
2023-05-21T18:30:43.208Z,0.60
2023-05-21T18:32:53.207Z,0.50
2023-05-21T18:35:16.573Z,0.60
2023-05-21T18:37:48.923Z,0.70
2023-05-21T18:39:58.029Z,0.50
2023-05-21T18:42:13.270Z,0.50
2023-05-21T18:44:24.257Z,0.50
2023-05-21T18:46:33.545Z,0.80
2023-05-21T18:48:46.621Z,0.60
2023-05-21T18:50:55.923Z,0.80
2023-05-21T18:53:05.115Z,0.90
2023-05-21T18:55:15.194Z,0.40
2023-05-21T18:57:24.355Z,0.50
2023-05-21T18:59:33.774Z,0.60
2023-05-21T19:01:43.307Z,0.60
2023-05-21T19:03:52.819Z,0.70
2023-05-21T19:06:02.098Z,0.50
2023-05-21T19:08:15.559Z,0.70
2023-05-21T19:10:25.386Z,0.70
2023-05-21T19:12:36.485Z,0.60
2023-05-21T19:14:46.919Z,0.90
2023-05-21T19:17:06.907Z,0.60
2023-05-21T19:19:16.877Z,0.70
2023-05-21T19:21:26.649Z,0.70
2023-05-21T19:23:51.268Z,0.80
2023-05-21T19:26:02.335Z,0.80
2023-05-21T19:28:11.607Z,0.80
2023-05-21T19:30:21.095Z,0.70
2023-05-21T19:32:31.316Z,0.70
2023-05-21T19:34:41.375Z,0.60
2023-05-21T19:36:53.807Z,0.70
2023-05-21T19:39:04.528Z,0.80
2023-05-21T19:41:13.988Z,0.70
2023-05-21T19:43:23.512Z,0.70
2023-05-21T19:45:32.770Z,0.60
2023-05-21T19:47:42.566Z,0.60
2023-05-21T19:49:52.713Z,0.40
2023-05-21T19:52:02.787Z,0.70
2023-05-21T19:54:12.120Z,0.50
2023-05-21T19:56:22.305Z,0.60
2023-05-21T19:58:31.879Z,0.70
2023-05-21T20:00:41.364Z,0.50
2023-05-21T20:02:51.083Z,0.50
2023-05-21T20:05:03.690Z,0.60
2023-05-21T20:07:13.274Z,0.60
2023-05-21T20:09:23.047Z,0.70
2023-05-21T20:11:32.605Z,0.70
2023-05-21T20:13:41.880Z,0.60
2023-05-21T20:15:51.634Z,0.60
2023-05-21T20:18:04.222Z,0.70
2023-05-21T20:20:19.047Z,0.60
2023-05-21T20:22:28.518Z,0.60
2023-05-21T20:24:37.910Z,0.50
2023-05-21T20:26:47.399Z,0.90
2023-05-21T20:28:57.013Z,0.60
2023-05-21T20:31:15.621Z,0.80
2023-05-21T20:33:25.612Z,0.60
2023-05-21T20:35:35.067Z,0.70
2023-05-21T20:37:44.392Z,0.50
2023-05-21T20:39:58.149Z,0.60
2023-05-21T20:42:11.061Z,0.60
2023-05-21T20:44:21.672Z,0.60
2023-05-21T20:46:31.661Z,0.40
2023-05-21T20:48:42.177Z,0.40
2023-05-21T20:51:00.921Z,0.50
2023-05-21T20:53:10.228Z,0.60
2023-05-21T20:55:21.158Z,0.60
2023-05-21T20:57:33.376Z,0.50
2023-05-21T20:59:42.665Z,0.50
2023-05-21T21:01:52.928Z,0.50
2023-05-21T21:04:02.434Z,0.60
2023-05-21T21:06:11.972Z,0.50
2023-05-21T21:08:21.569Z,1.30
2023-05-21T21:10:31.244Z,0.70
2023-05-21T21:12:40.557Z,0.50
2023-05-21T21:14:50.043Z,0.50
2023-05-21T21:16:59.388Z,0.60
2023-05-21T21:19:08.651Z,0.50
2023-05-21T21:21:17.963Z,0.60
2023-05-21T21:23:29.596Z,0.60
2023-05-21T21:25:38.748Z,0.50
2023-05-21T21:27:48.647Z,0.50
2023-05-21T21:29:58.444Z,0.50
2023-05-21T21:32:08.860Z,0.70
2023-05-21T21:34:23.854Z,0.40
2023-05-21T21:36:33.399Z,0.40
2023-05-21T21:38:42.731Z,0.40
2023-05-21T21:40:52.508Z,0.70
2023-05-21T21:43:01.880Z,1.20
2023-05-21T21:45:13.065Z,0.90
2023-05-21T21:47:25.716Z,0.70
2023-05-21T21:49:34.993Z,0.60
2023-05-21T21:51:44.857Z,0.50
2023-05-21T21:53:54.377Z,0.40
2023-05-21T21:56:03.647Z,0.50
2023-05-21T21:58:13.196Z,0.40
2023-05-21T22:00:26.995Z,0.60
2023-05-21T22:02:36.468Z,0.50
2023-05-21T22:04:46.983Z,0.60
2023-05-21T22:06:56.349Z,0.50
2023-05-21T22:09:05.778Z,0.80
2023-05-21T22:11:25.326Z,0.60
2023-05-21T22:13:38.076Z,0.60
2023-05-21T22:15:47.675Z,0.80
2023-05-21T22:17:57.550Z,0.60
2023-05-21T22:20:07.686Z,0.80
2023-05-21T22:22:17.808Z,0.50
2023-05-21T22:26:43.065Z,0.60
2023-05-21T22:28:52.470Z,0.70
2023-05-21T22:31:02.252Z,0.60
2023-05-21T22:33:11.785Z,0.70
2023-05-21T22:35:21.251Z,0.70
2023-05-21T22:37:41.817Z,0.70
2023-05-21T22:39:51.452Z,0.70
2023-05-21T22:42:04.442Z,0.70
2023-05-21T22:44:16.743Z,0.80
2023-05-21T22:46:26.191Z,0.40
2023-05-21T22:48:37.552Z,0.70
2023-05-21T22:50:47.827Z,0.50
2023-05-21T22:52:57.223Z,0.40
2023-05-21T22:55:07.330Z,0.60
2023-05-21T22:57:16.682Z,0.60
2023-05-21T22:59:26.026Z,0.60
2023-05-21T23:01:35.395Z,0.70
2023-05-21T23:03:44.680Z,0.60
2023-05-21T23:05:54.547Z,0.60
2023-05-21T23:08:03.698Z,0.60
2023-05-21T23:10:14.054Z,0.60
2023-05-21T23:12:23.989Z,0.60
2023-05-21T23:14:33.769Z,0.80
2023-05-21T23:16:44.237Z,0.80
2023-05-21T23:18:54.802Z,0.60
2023-05-21T23:21:04.548Z,0.60
2023-05-21T23:23:13.903Z,0.60
2023-05-21T23:25:23.421Z,0.80
2023-05-21T23:27:32.824Z,0.60
2023-05-21T23:29:42.429Z,0.70
2023-05-21T23:31:52.148Z,0.70
2023-05-21T23:34:02.019Z,0.90
2023-05-21T23:36:12.158Z,0.90
2023-05-21T23:38:21.525Z,0.80
2023-05-21T23:40:30.951Z,1.00
2023-05-21T23:42:40.463Z,0.70
2023-05-21T23:44:50.202Z,0.90
2023-05-21T23:46:59.564Z,1.10
2023-05-21T23:49:08.893Z,0.80
2023-05-21T23:51:19.567Z,1.00
2023-05-21T23:53:31.727Z,1.10
2023-05-21T23:55:41.241Z,1.20
2023-05-21T23:57:50.771Z,1.30
